Time,TemperatureF,DewpointF,PressureIn,WindDirection,WindDirectionDegrees,WindSpeedMPH,WindSpeedGustMPH,Humidity,HourlyPrecipIn,Conditions,Clouds,dailyrainin,SoftwareType,DateUTC
2013-06-09 00:02:00,52.2,48.0,30.13,ENE,67,6.0,9.0,86,0.00,,,0.00,meteohub,2013-06-08 23:02:00,
2013-06-09 00:07:00,52.2,48.0,30.13,NE,45,9.0,9.0,86,0.00,,,0.00,meteohub,2013-06-08 23:07:00,
2013-06-09 00:12:00,52.2,48.0,30.13,ENE,67,8.0,9.0,86,0.00,,,0.00,meteohub,2013-06-08 23:12:00,
2013-06-09 00:18:00,52.0,48.6,30.13,ENE,67,6.0,9.0,88,0.00,,,0.00,meteohub,2013-06-08 23:18:00,
2013-06-09 00:23:00,51.8,48.4,30.13,NE,45,5.0,9.0,88,0.00,,,0.00,meteohub,2013-06-08 23:23:00,
2013-06-09 00:28:00,51.8,48.7,30.13,NNW,337,6.0,9.0,89,0.00,,,0.00,meteohub,2013-06-08 23:28:00,
2013-06-09 00:33:00,51.8,48.7,30.13,East,90,5.0,9.0,89,0.01,,,0.01,meteohub,2013-06-08 23:33:00,
2013-06-09 00:38:00,51.8,48.7,30.13,North,0,3.0,7.0,89,0.02,,,0.02,meteohub,2013-06-08 23:38:00,
2013-06-09 00:44:00,51.8,48.7,30.13,ENE,67,5.0,7.0,89,0.02,,,0.02,meteohub,2013-06-08 23:44:00,
2013-06-09 00:49:00,51.8,48.7,30.13,ENE,67,6.0,6.0,89,0.02,,,0.02,meteohub,2013-06-08 23:49:00,
2013-06-09 00:54:00,51.6,48.7,30.13,East,90,6.0,6.0,90,0.02,,,0.02,meteohub,2013-06-08 23:54:00,
2013-06-09 00:59:00,51.6,48.7,30.13,ENE,67,6.0,7.0,90,0.02,,,0.02,meteohub,2013-06-08 23:59:00,
2013-06-09 01:05:00,51.6,49.1,30.13,ENE,67,8.0,10.0,91,0.02,,,0.02,meteohub,2013-06-09 00:05:00,
2013-06-09 01:10:00,51.4,48.9,30.13,East,90,10.0,13.0,91,0.03,,,0.03,meteohub,2013-06-09 00:10:00,
2013-06-09 01:15:00,51.4,49.3,30.13,East,90,7.0,13.0,92,0.04,,,0.04,meteohub,2013-06-09 00:15:00,
2013-06-09 01:20:00,51.3,49.1,30.10,ESE,112,6.0,13.0,92,0.04,,,0.05,meteohub,2013-06-09 00:20:00,
2013-06-09 01:25:00,51.3,49.3,30.10,ENE,67,6.0,11.0,93,0.04,,,0.05,meteohub,2013-06-09 00:25:00,
2013-06-09 01:30:00,51.1,49.1,30.10,ENE,67,8.0,11.0,93,0.04,,,0.05,meteohub,2013-06-09 00:30:00,
2013-06-09 01:36:00,51.1,49.1,30.10,ENE,67,6.0,10.0,93,0.04,,,0.06,meteohub,2013-06-09 00:36:00,
2013-06-09 01:41:00,50.9,48.9,30.10,NE,45,6.0,10.0,93,0.04,,,0.06,meteohub,2013-06-09 00:41:00,
2013-06-09 01:46:00,50.9,48.9,30.10,ENE,67,6.0,9.0,93,0.05,,,0.06,meteohub,2013-06-09 00:46:00,
2013-06-09 01:51:00,50.9,48.9,30.10,NE,45,5.0,9.0,93,0.05,,,0.06,meteohub,2013-06-09 00:51:00,
2013-06-09 01:57:00,50.9,48.9,30.10,NE,45,6.0,9.0,93,0.06,,,0.07,meteohub,2013-06-09 00:57:00,
2013-06-09 02:02:00,50.9,48.9,30.10,ENE,67,8.0,8.0,93,0.06,,,0.07,meteohub,2013-06-09 01:02:00,
2013-06-09 02:07:00,50.9,49.3,30.10,ENE,67,4.0,9.0,94,0.05,,,0.07,meteohub,2013-06-09 01:07:00,
2013-06-09 02:12:00,50.7,49.1,30.10,ENE,67,7.0,9.0,94,0.04,,,0.07,meteohub,2013-06-09 01:12:00,
2013-06-09 02:17:00,50.7,49.1,30.10,East,90,4.0,10.0,94,0.03,,,0.07,meteohub,2013-06-09 01:17:00,
2013-06-09 02:22:00,50.7,49.1,30.10,East,90,4.0,10.0,94,0.03,,,0.07,meteohub,2013-06-09 01:22:00,
2013-06-09 02:27:00,50.7,49.1,30.10,ENE,67,6.0,10.0,94,0.02,,,0.07,meteohub,2013-06-09 01:27:00,
2013-06-09 02:32:00,50.7,49.1,30.10,East,90,8.0,9.0,94,0.02,,,0.07,meteohub,2013-06-09 01:32:00,
2013-06-09 02:37:00,50.5,48.9,30.10,ENE,67,6.0,9.0,94,0.02,,,0.07,meteohub,2013-06-09 01:37:00,
2013-06-09 02:42:00,50.5,48.9,30.10,ENE,67,5.0,9.0,94,0.01,,,0.07,meteohub,2013-06-09 01:42:00,
2013-06-09 02:48:00,50.5,48.9,30.10,ENE,67,8.0,9.0,94,0.01,,,0.07,meteohub,2013-06-09 01:48:00,
2013-06-09 02:53:00,50.4,48.7,30.10,NE,45,6.0,9.0,94,0.01,,,0.07,meteohub,2013-06-09 01:53:00,
2013-06-09 02:58:00,50.4,48.7,30.10,East,90,5.0,10.0,94,0.00,,,0.07,meteohub,2013-06-09 01:58:00,
2013-06-09 03:03:00,50.4,48.7,30.10,East,90,5.0,10.0,94,0.00,,,0.07,meteohub,2013-06-09 02:03:00,
2013-06-09 03:09:00,50.4,48.7,30.10,NE,45,7.0,10.0,94,0.00,,,0.07,meteohub,2013-06-09 02:09:00,
2013-06-09 03:14:00,50.4,48.7,30.10,ENE,67,4.0,8.0,94,0.00,,,0.07,meteohub,2013-06-09 02:14:00,
2013-06-09 03:19:00,50.4,48.7,30.10,ENE,67,5.0,8.0,94,0.00,,,0.07,meteohub,2013-06-09 02:19:00,
2013-06-09 03:24:00,50.4,48.7,30.10,ENE,67,3.0,8.0,94,0.00,,,0.07,meteohub,2013-06-09 02:24:00,
2013-06-09 03:29:00,50.4,48.7,30.10,NE,45,4.0,6.0,94,0.00,,,0.07,meteohub,2013-06-09 02:29:00,
2013-06-09 03:34:00,50.4,48.7,30.10,ENE,67,4.0,8.0,94,0.00,,,0.07,meteohub,2013-06-09 02:34:00,
2013-06-09 03:39:00,50.2,48.6,30.10,ENE,67,6.0,8.0,94,0.00,,,0.07,meteohub,2013-06-09 02:39:00,
2013-06-09 03:45:00,50.2,48.6,30.10,NE,45,6.0,8.0,94,0.00,,,0.07,meteohub,2013-06-09 02:45:00,
2013-06-09 03:50:00,50.2,48.6,30.10,NE,45,6.0,8.0,94,0.00,,,0.07,meteohub,2013-06-09 02:50:00,
2013-06-09 03:55:00,50.2,48.6,30.10,ENE,67,6.0,10.0,94,0.00,,,0.07,meteohub,2013-06-09 02:55:00,
2013-06-09 04:00:00,50.2,48.6,30.10,ENE,67,7.0,10.0,94,0.00,,,0.07,meteohub,2013-06-09 03:00:00,
2013-06-09 04:05:00,50.2,48.6,30.10,NE,45,4.0,10.0,94,0.00,,,0.07,meteohub,2013-06-09 03:05:00,
2013-06-09 04:10:00,50.0,48.4,30.10,ENE,67,6.0,10.0,94,0.00,,,0.07,meteohub,2013-06-09 03:10:00,
2013-06-09 04:15:00,50.0,48.4,30.10,East,90,6.0,10.0,94,0.00,,,0.07,meteohub,2013-06-09 03:15:00,
2013-06-09 04:20:00,50.0,48.4,30.10,NNE,22,5.0,9.0,94,0.00,,,0.07,meteohub,2013-06-09 03:20:00,
2013-06-09 04:26:00,50.0,48.4,30.10,ENE,67,6.0,9.0,94,0.00,,,0.07,meteohub,2013-06-09 03:26:00,
2013-06-09 04:31:00,49.8,48.2,30.10,NE,45,8.0,9.0,94,0.00,,,0.07,meteohub,2013-06-09 03:31:00,
2013-06-09 04:36:00,49.8,48.2,30.10,ENE,67,6.0,9.0,94,0.00,,,0.07,meteohub,2013-06-09 03:36:00,
2013-06-09 04:41:00,49.6,48.0,30.10,ENE,67,7.0,11.0,94,0.00,,,0.07,meteohub,2013-06-09 03:41:00,
2013-06-09 04:46:00,49.6,48.0,30.10,NNE,22,6.0,11.0,94,0.00,,,0.07,meteohub,2013-06-09 03:46:00,
2013-06-09 04:51:00,49.6,48.0,30.07,NE,45,6.0,11.0,94,0.00,,,0.07,meteohub,2013-06-09 03:51:00,
2013-06-09 04:57:00,49.6,48.0,30.07,ENE,67,8.0,11.0,94,0.00,,,0.07,meteohub,2013-06-09 03:57:00,
2013-06-09 05:01:00,49.6,48.0,30.07,ENE,67,6.0,11.0,94,0.00,,,0.07,meteohub,2013-06-09 04:01:00,
2013-06-09 05:02:00,49.6,48.0,30.07,ENE,67,7.0,11.0,94,0.00,,,0.07,meteohub,2013-06-09 04:02:00,
2013-06-09 05:04:00,49.6,48.0,30.07,ENE,67,6.0,11.0,94,0.00,,,0.07,meteohub,2013-06-09 04:04:00,
2013-06-09 05:05:00,49.6,48.0,30.07,ENE,67,8.0,10.0,94,0.00,,,0.07,meteohub,2013-06-09 04:05:00,
2013-06-09 05:10:00,49.6,48.0,30.07,East,90,6.0,10.0,94,0.00,,,0.07,meteohub,2013-06-09 04:10:00,
2013-06-09 05:15:00,49.8,48.4,30.07,NE,45,9.0,10.0,95,0.00,,,0.07,meteohub,2013-06-09 04:15:00,
2013-06-09 05:20:00,49.6,48.2,30.10,ENE,67,9.0,10.0,95,0.00,,,0.07,meteohub,2013-06-09 04:20:00,
2013-06-09 05:26:00,49.8,48.4,30.10,ENE,67,6.0,10.0,95,0.00,,,0.07,meteohub,2013-06-09 04:26:00,
2013-06-09 05:31:00,49.8,48.4,30.10,ENE,67,5.0,11.0,95,0.00,,,0.07,meteohub,2013-06-09 04:31:00,
2013-06-09 05:36:00,49.8,48.4,30.07,ENE,67,5.0,11.0,95,0.00,,,0.07,meteohub,2013-06-09 04:36:00,
2013-06-09 05:41:00,49.8,48.4,30.07,NE,45,4.0,11.0,95,0.00,,,0.07,meteohub,2013-06-09 04:41:00,
2013-06-09 05:47:00,50.0,48.4,30.07,ENE,67,8.0,10.0,94,0.00,,,0.07,meteohub,2013-06-09 04:47:00,
2013-06-09 05:52:00,50.0,48.4,30.07,ENE,67,5.0,10.0,94,0.00,,,0.07,meteohub,2013-06-09 04:52:00,
2013-06-09 05:57:00,50.0,48.4,30.07,ENE,67,6.0,10.0,94,0.00,,,0.07,meteohub,2013-06-09 04:57:00,
2013-06-09 06:02:00,50.2,48.6,30.07,ENE,67,7.0,9.0,94,0.00,,,0.07,meteohub,2013-06-09 05:02:00,
2013-06-09 06:07:00,50.2,48.6,30.07,NE,45,9.0,10.0,94,0.00,,,0.07,meteohub,2013-06-09 05:07:00,
2013-06-09 06:12:00,50.2,48.6,30.07,NE,45,10.0,10.0,94,0.00,,,0.07,meteohub,2013-06-09 05:12:00,
2013-06-09 06:17:00,50.2,48.6,30.07,ENE,67,6.0,10.0,94,0.00,,,0.07,meteohub,2013-06-09 05:17:00,
2013-06-09 06:22:00,50.4,48.7,30.07,ENE,67,6.0,10.0,94,0.00,,,0.07,meteohub,2013-06-09 05:22:00,
2013-06-09 06:27:00,50.4,48.7,30.07,East,90,8.0,10.0,94,0.00,,,0.07,meteohub,2013-06-09 05:27:00,
2013-06-09 06:32:00,50.5,48.9,30.07,ENE,67,9.0,11.0,94,0.00,,,0.07,meteohub,2013-06-09 05:32:00,
2013-06-09 06:37:00,50.5,48.6,30.07,ENE,67,5.0,11.0,93,0.00,,,0.07,meteohub,2013-06-09 05:37:00,
2013-06-09 06:43:00,50.7,48.7,30.07,NE,45,5.0,11.0,93,0.00,,,0.07,meteohub,2013-06-09 05:43:00,
2013-06-09 06:48:00,50.7,48.7,30.07,East,90,6.0,10.0,93,0.00,,,0.07,meteohub,2013-06-09 05:48:00,
2013-06-09 06:53:00,50.7,48.7,30.07,ENE,67,5.0,11.0,93,0.00,,,0.07,meteohub,2013-06-09 05:53:00,
2013-06-09 06:58:00,50.7,48.6,30.07,NE,45,6.0,11.0,92,0.00,,,0.07,meteohub,2013-06-09 05:58:00,
2013-06-09 07:03:00,50.9,48.7,30.07,East,90,8.0,11.0,92,0.00,,,0.07,meteohub,2013-06-09 06:03:00,
2013-06-09 07:09:00,50.9,48.7,30.07,East,90,6.0,10.0,92,0.00,,,0.07,meteohub,2013-06-09 06:09:00,
2013-06-09 07:14:00,51.1,48.9,30.07,East,90,5.0,10.0,92,0.00,,,0.07,meteohub,2013-06-09 06:14:00,
2013-06-09 07:19:00,51.3,49.1,30.07,ENE,67,8.0,10.0,92,0.00,,,0.07,meteohub,2013-06-09 06:19:00,
2013-06-09 07:24:00,51.3,48.7,30.07,East,90,5.0,10.0,91,0.00,,,0.07,meteohub,2013-06-09 06:24:00,
2013-06-09 07:29:00,51.3,48.7,30.07,NNE,22,5.0,8.0,91,0.00,,,0.07,meteohub,2013-06-09 06:29:00,
2013-06-09 07:35:00,51.4,48.9,30.07,East,90,8.0,10.0,91,0.00,,,0.07,meteohub,2013-06-09 06:35:00,
2013-06-09 07:40:00,51.4,48.6,30.07,NNE,22,6.0,10.0,90,0.00,,,0.07,meteohub,2013-06-09 06:40:00,
2013-06-09 07:45:00,51.4,48.6,30.07,East,90,5.0,11.0,90,0.00,,,0.07,meteohub,2013-06-09 06:45:00,
2013-06-09 07:50:00,51.4,48.6,30.07,East,90,7.0,11.0,90,0.00,,,0.07,meteohub,2013-06-09 06:50:00,
2013-06-09 07:55:00,51.4,48.6,30.07,NE,45,9.0,11.0,90,0.00,,,0.07,meteohub,2013-06-09 06:55:00,
2013-06-09 08:00:00,51.6,48.7,30.07,NE,45,9.0,9.0,90,0.00,,,0.07,meteohub,2013-06-09 07:00:00,
2013-06-09 08:05:00,51.6,48.7,30.07,NE,45,7.0,11.0,90,0.00,,,0.07,meteohub,2013-06-09 07:05:00,
2013-06-09 08:11:00,51.8,48.7,30.07,East,90,3.0,11.0,89,0.00,,,0.07,meteohub,2013-06-09 07:11:00,
2013-06-09 08:16:00,56.5,43.7,30.07,SE,135,6.0,11.0,62,0.00,,,0.07,meteohub,2013-06-09 07:16:00,
2013-06-09 08:21:00,51.8,48.7,30.07,NE,45,9.0,9.0,89,0.00,,,0.07,meteohub,2013-06-09 07:21:00,
2013-06-09 08:26:00,51.8,48.7,30.07,ENE,67,7.0,10.0,89,0.00,,,0.07,meteohub,2013-06-09 07:26:00,
2013-06-09 08:31:00,52.0,48.9,30.07,East,90,6.0,10.0,89,0.00,,,0.07,meteohub,2013-06-09 07:31:00,
2013-06-09 08:37:00,52.2,48.7,30.07,East,90,4.0,11.0,88,0.00,,,0.07,meteohub,2013-06-09 07:37:00,
2013-06-09 08:42:00,52.2,48.4,30.07,ENE,67,8.0,11.0,87,0.00,,,0.07,meteohub,2013-06-09 07:42:00,
2013-06-09 08:47:00,52.3,48.2,30.07,ENE,67,8.0,11.0,86,0.00,,,0.07,meteohub,2013-06-09 07:47:00,
2013-06-09 08:52:00,52.5,48.4,30.07,East,90,5.0,10.0,86,0.00,,,0.07,meteohub,2013-06-09 07:52:00,
2013-06-09 08:57:00,52.5,48.4,30.07,East,90,8.0,10.0,86,0.00,,,0.07,meteohub,2013-06-09 07:57:00,
2013-06-09 09:02:00,52.5,48.4,30.07,East,90,7.0,10.0,86,0.00,,,0.07,meteohub,2013-06-09 08:02:00,
2013-06-09 09:07:00,52.5,48.4,30.07,East,90,6.0,10.0,86,0.00,,,0.07,meteohub,2013-06-09 08:07:00,
2013-06-09 09:12:00,52.5,48.2,30.07,ESE,112,4.0,10.0,85,0.00,,,0.07,meteohub,2013-06-09 08:12:00,
2013-06-09 09:17:00,52.5,48.2,30.07,East,90,5.0,10.0,85,0.00,,,0.07,meteohub,2013-06-09 08:17:00,
2013-06-09 09:22:00,52.7,48.4,30.07,SE,135,6.0,10.0,85,0.00,,,0.07,meteohub,2013-06-09 08:22:00,
2013-06-09 09:27:00,52.7,48.4,30.07,East,90,6.0,9.0,85,0.00,,,0.07,meteohub,2013-06-09 08:27:00,
2013-06-09 09:33:00,52.7,48.0,30.07,ESE,112,6.0,9.0,84,0.00,,,0.07,meteohub,2013-06-09 08:33:00,
2013-06-09 09:38:00,52.7,48.0,30.07,East,90,7.0,9.0,84,0.00,,,0.07,meteohub,2013-06-09 08:38:00,
2013-06-09 09:43:00,52.9,48.2,30.07,East,90,8.0,10.0,84,0.00,,,0.07,meteohub,2013-06-09 08:43:00,
2013-06-09 09:48:00,53.1,48.4,30.07,East,90,4.0,10.0,84,0.00,,,0.07,meteohub,2013-06-09 08:48:00,
2013-06-09 09:53:00,53.2,48.6,30.07,East,90,6.0,10.0,84,0.00,,,0.07,meteohub,2013-06-09 08:53:00,
2013-06-09 09:58:00,53.4,48.7,30.07,ENE,67,6.0,10.0,84,0.00,,,0.07,meteohub,2013-06-09 08:58:00,
2013-06-09 10:03:00,53.8,48.7,30.07,ESE,112,6.0,11.0,83,0.00,,,0.07,meteohub,2013-06-09 09:03:00,
2013-06-09 10:08:00,53.8,48.0,30.07,East,90,6.0,11.0,81,0.00,,,0.07,meteohub,2013-06-09 09:08:00,
2013-06-09 10:14:00,53.8,48.0,30.07,East,90,6.0,11.0,81,0.00,,,0.07,meteohub,2013-06-09 09:14:00,
2013-06-09 10:19:00,54.0,48.2,30.07,NE,45,7.0,11.0,81,0.00,,,0.07,meteohub,2013-06-09 09:19:00,
2013-06-09 10:24:00,54.1,48.4,30.07,ENE,67,5.0,10.0,81,0.00,,,0.07,meteohub,2013-06-09 09:24:00,
2013-06-09 10:29:00,54.5,48.7,30.07,ENE,67,8.0,10.0,81,0.00,,,0.07,meteohub,2013-06-09 09:29:00,
2013-06-09 10:34:00,54.5,48.4,30.07,ESE,112,6.0,11.0,80,0.00,,,0.07,meteohub,2013-06-09 09:34:00,
2013-06-09 10:39:00,54.9,49.1,30.07,ENE,67,7.0,11.0,81,0.00,,,0.07,meteohub,2013-06-09 09:39:00,
2013-06-09 10:45:00,55.4,48.9,30.07,East,90,6.0,11.0,79,0.00,,,0.07,meteohub,2013-06-09 09:45:00,
2013-06-09 10:50:00,55.4,48.9,30.07,East,90,8.0,10.0,79,0.00,,,0.07,meteohub,2013-06-09 09:50:00,
2013-06-09 10:55:00,55.8,48.9,30.07,NNE,22,6.0,10.0,78,0.00,,,0.07,meteohub,2013-06-09 09:55:00,
2013-06-09 11:00:00,55.6,48.6,30.07,ESE,112,8.0,11.0,77,0.00,,,0.07,meteohub,2013-06-09 10:00:00,
2013-06-09 11:06:00,55.6,48.2,30.07,ESE,112,4.0,11.0,76,0.00,,,0.07,meteohub,2013-06-09 10:06:00,
2013-06-09 11:11:00,55.8,48.7,30.07,East,90,5.0,11.0,77,0.00,,,0.07,meteohub,2013-06-09 10:11:00,
2013-06-09 11:16:00,55.9,48.9,30.07,ENE,67,5.0,11.0,77,0.00,,,0.07,meteohub,2013-06-09 10:16:00,
2013-06-09 11:21:00,55.9,48.9,30.07,NE,45,6.0,10.0,77,0.00,,,0.07,meteohub,2013-06-09 10:21:00,
2013-06-09 11:26:00,56.1,48.7,30.07,ENE,67,6.0,10.0,76,0.00,,,0.07,meteohub,2013-06-09 10:26:00,
2013-06-09 11:31:00,55.6,48.9,30.07,East,90,9.0,9.0,78,0.00,,,0.07,meteohub,2013-06-09 10:31:00,
2013-06-09 11:36:00,56.3,48.9,30.07,ENE,67,4.0,10.0,76,0.00,,,0.07,meteohub,2013-06-09 10:36:00,
2013-06-09 11:42:00,56.5,48.9,30.07,East,90,7.0,10.0,76,0.00,,,0.07,meteohub,2013-06-09 10:42:00,
2013-06-09 11:47:00,56.7,48.9,30.07,East,90,8.0,10.0,75,0.00,,,0.07,meteohub,2013-06-09 10:47:00,
2013-06-09 11:52:00,56.7,48.6,30.07,NE,45,10.0,10.0,74,0.00,,,0.07,meteohub,2013-06-09 10:52:00,
2013-06-09 11:57:00,56.8,49.1,30.07,East,90,6.0,10.0,75,0.00,,,0.07,meteohub,2013-06-09 10:57:00,
2013-06-09 12:02:00,57.0,48.7,30.07,ENE,67,8.0,10.0,74,0.00,,,0.07,meteohub,2013-06-09 11:02:00,
2013-06-09 12:07:00,57.0,48.7,30.07,East,90,5.0,10.0,74,0.00,,,0.07,meteohub,2013-06-09 11:07:00,
2013-06-09 12:12:00,57.4,48.7,30.07,ENE,67,6.0,9.0,73,0.00,,,0.07,meteohub,2013-06-09 11:12:00,
2013-06-09 12:17:00,57.9,49.3,30.07,NNE,22,6.0,9.0,73,0.00,,,0.07,meteohub,2013-06-09 11:17:00,
2013-06-09 12:22:00,58.3,49.6,30.07,ENE,67,6.0,9.0,73,0.00,,,0.07,meteohub,2013-06-09 11:22:00,
2013-06-09 12:27:00,57.4,49.1,30.07,ENE,67,6.0,9.0,74,0.00,,,0.07,meteohub,2013-06-09 11:27:00,
2013-06-09 12:32:00,58.6,49.3,30.07,East,90,5.0,9.0,71,0.00,,,0.07,meteohub,2013-06-09 11:32:00,
2013-06-09 12:37:00,58.8,49.1,30.07,ENE,67,5.0,9.0,70,0.00,,,0.07,meteohub,2013-06-09 11:37:00,
2013-06-09 12:42:00,59.2,49.5,30.07,East,90,5.0,9.0,70,0.00,,,0.07,meteohub,2013-06-09 11:42:00,
2013-06-09 12:47:00,57.4,49.1,30.07,ENE,67,7.0,9.0,74,0.00,,,0.07,meteohub,2013-06-09 11:47:00,
2013-06-09 12:52:00,59.2,49.1,30.07,ENE,67,9.0,9.0,69,0.00,,,0.07,meteohub,2013-06-09 11:52:00,
2013-06-09 12:58:00,59.2,49.1,30.07,East,90,5.0,9.0,69,0.00,,,0.07,meteohub,2013-06-09 11:58:00,
2013-06-09 13:03:00,59.2,48.6,30.07,NE,45,2.0,9.0,68,0.00,,,0.07,meteohub,2013-06-09 12:03:00,
2013-06-09 13:08:00,59.4,49.1,30.07,ENE,67,4.0,9.0,69,0.00,,,0.07,meteohub,2013-06-09 12:08:00,
2013-06-09 13:14:00,59.4,48.7,30.07,ENE,67,6.0,10.0,68,0.00,,,0.07,meteohub,2013-06-09 12:14:00,
2013-06-09 13:19:00,59.5,49.3,30.07,NE,45,6.0,10.0,69,0.00,,,0.07,meteohub,2013-06-09 12:19:00,
2013-06-09 13:24:00,59.7,49.1,30.04,East,90,7.0,10.0,68,0.00,,,0.07,meteohub,2013-06-09 12:24:00,
2013-06-09 13:29:00,60.1,49.1,30.04,NW,315,4.0,9.0,67,0.00,,,0.07,meteohub,2013-06-09 12:29:00,
2013-06-09 13:34:00,60.3,49.3,30.04,ENE,67,5.0,9.0,67,0.00,,,0.07,meteohub,2013-06-09 12:34:00,
2013-06-09 13:39:00,60.4,49.5,30.04,NE,45,5.0,9.0,67,0.00,,,0.07,meteohub,2013-06-09 12:39:00,
2013-06-09 13:45:00,60.4,49.5,30.04,East,90,4.0,10.0,67,0.00,,,0.07,meteohub,2013-06-09 12:45:00,
2013-06-09 13:50:00,60.4,49.1,30.04,ENE,67,6.0,10.0,66,0.00,,,0.07,meteohub,2013-06-09 12:50:00,
2013-06-09 13:55:00,60.3,49.3,30.04,ENE,67,4.0,10.0,67,0.00,,,0.07,meteohub,2013-06-09 12:55:00,
2013-06-09 14:00:00,60.4,49.5,30.04,East,90,4.0,9.0,67,0.00,,,0.07,meteohub,2013-06-09 13:00:00,
2013-06-09 14:05:00,60.6,49.3,30.04,East,90,6.0,9.0,66,0.00,,,0.07,meteohub,2013-06-09 13:05:00,
2013-06-09 14:11:00,60.8,49.5,30.04,East,90,6.0,10.0,66,0.00,,,0.07,meteohub,2013-06-09 13:11:00,
2013-06-09 14:16:00,60.6,49.3,30.04,East,90,6.0,10.0,66,0.00,,,0.07,meteohub,2013-06-09 13:16:00,
2013-06-09 14:21:00,60.8,49.5,30.04,ESE,112,3.0,10.0,66,0.00,,,0.07,meteohub,2013-06-09 13:21:00,
2013-06-09 14:26:00,61.0,49.5,30.04,East,90,6.0,10.0,66,0.00,,,0.07,meteohub,2013-06-09 13:26:00,
2013-06-09 14:31:00,61.2,49.3,30.04,East,90,7.0,10.0,65,0.00,,,0.07,meteohub,2013-06-09 13:31:00,
2013-06-09 14:36:00,61.0,48.7,30.04,NE,45,6.0,9.0,64,0.00,,,0.07,meteohub,2013-06-09 13:36:00,
2013-06-09 14:42:00,60.8,48.9,30.04,WNW,292,7.0,9.0,65,0.00,,,0.07,meteohub,2013-06-09 13:42:00,
2013-06-09 14:47:00,61.0,48.7,30.04,SE,135,3.0,11.0,64,0.00,,,0.07,meteohub,2013-06-09 13:47:00,
2013-06-09 14:52:00,61.0,49.1,30.04,East,90,5.0,11.0,65,0.00,,,0.07,meteohub,2013-06-09 13:52:00,
2013-06-09 14:57:00,61.0,49.1,30.04,East,90,6.0,11.0,65,0.00,,,0.07,meteohub,2013-06-09 13:57:00,
2013-06-09 15:02:00,60.6,48.4,30.04,East,90,8.0,10.0,64,0.00,,,0.07,meteohub,2013-06-09 14:02:00,
2013-06-09 15:07:00,60.4,48.6,30.04,NE,45,10.0,10.0,65,0.00,,,0.07,meteohub,2013-06-09 14:07:00,
2013-06-09 15:12:00,60.4,48.6,30.04,East,90,7.0,11.0,65,0.00,,,0.07,meteohub,2013-06-09 14:12:00,
2013-06-09 15:17:00,59.2,48.6,30.04,SE,135,9.0,11.0,68,0.00,,,0.07,meteohub,2013-06-09 14:17:00,
2013-06-09 15:22:00,60.1,48.7,30.04,East,90,6.0,11.0,66,0.00,,,0.07,meteohub,2013-06-09 14:22:00,
2013-06-09 15:28:00,59.9,48.2,30.04,East,90,9.0,10.0,65,0.00,,,0.07,meteohub,2013-06-09 14:28:00,
2013-06-09 15:33:00,59.9,48.2,30.04,East,90,6.0,10.0,65,0.00,,,0.07,meteohub,2013-06-09 14:33:00,
2013-06-09 15:38:00,59.9,48.6,30.04,East,90,10.0,11.0,66,0.00,,,0.07,meteohub,2013-06-09 14:38:00,
2013-06-09 15:43:00,59.9,48.6,30.04,SE,135,6.0,11.0,66,0.00,,,0.07,meteohub,2013-06-09 14:43:00,
2013-06-09 15:48:00,59.5,48.2,30.04,East,90,5.0,11.0,66,0.00,,,0.07,meteohub,2013-06-09 14:48:00,
2013-06-09 15:54:00,59.5,48.2,30.04,East,90,9.0,11.0,66,0.00,,,0.07,meteohub,2013-06-09 14:54:00,
2013-06-09 15:59:00,59.4,47.7,30.04,ENE,67,7.0,11.0,65,0.00,,,0.07,meteohub,2013-06-09 14:59:00,
2013-06-09 16:04:00,59.2,47.8,30.01,East,90,11.0,11.0,66,0.00,,,0.07,meteohub,2013-06-09 15:04:00,
2013-06-09 16:09:00,59.4,48.4,30.01,ENE,67,8.0,11.0,67,0.00,,,0.07,meteohub,2013-06-09 15:09:00,
2013-06-09 16:14:00,59.2,47.8,30.01,ESE,112,6.0,11.0,66,0.00,,,0.07,meteohub,2013-06-09 15:14:00,
2013-06-09 16:19:00,59.4,48.4,30.01,East,90,9.0,11.0,67,0.00,,,0.07,meteohub,2013-06-09 15:19:00,
2013-06-09 16:25:00,59.4,48.4,30.01,East,90,6.0,11.0,67,0.00,,,0.07,meteohub,2013-06-09 15:25:00,
2013-06-09 16:30:00,59.4,48.0,30.01,East,90,10.0,11.0,66,0.00,,,0.07,meteohub,2013-06-09 15:30:00,
2013-06-09 16:35:00,59.4,48.0,30.01,East,90,10.0,11.0,66,0.00,,,0.07,meteohub,2013-06-09 15:35:00,
2013-06-09 16:40:00,59.2,47.8,30.01,East,90,6.0,11.0,66,0.00,,,0.07,meteohub,2013-06-09 15:40:00,
2013-06-09 16:46:00,59.0,48.0,30.01,East,90,8.0,13.0,67,0.00,,,0.07,meteohub,2013-06-09 15:46:00,
2013-06-09 16:52:00,59.0,48.0,30.01,East,90,6.0,13.0,67,0.00,,,0.07,meteohub,2013-06-09 15:52:00,
2013-06-09 16:57:00,59.4,48.0,30.01,SE,135,6.0,13.0,66,0.00,,,0.07,meteohub,2013-06-09 15:57:00,
2013-06-09 17:02:00,58.6,48.2,30.01,ENE,67,9.0,13.0,68,0.00,,,0.07,meteohub,2013-06-09 16:02:00,
2013-06-09 17:07:00,58.5,48.0,30.01,NNE,22,8.0,12.0,68,0.00,,,0.07,meteohub,2013-06-09 16:07:00,
2013-06-09 17:13:00,58.5,48.0,30.01,ENE,67,5.0,11.0,68,0.00,,,0.07,meteohub,2013-06-09 16:13:00,
2013-06-09 17:18:00,58.5,48.0,30.01,East,90,6.0,11.0,68,0.00,,,0.07,meteohub,2013-06-09 16:18:00,
2013-06-09 17:23:00,58.5,48.0,30.01,ENE,67,11.0,12.0,68,0.00,,,0.07,meteohub,2013-06-09 16:23:00,
2013-06-09 17:28:00,58.3,48.2,30.01,East,90,6.0,12.0,69,0.00,,,0.07,meteohub,2013-06-09 16:28:00,
2013-06-09 17:33:00,58.1,48.0,30.01,East,90,6.0,14.0,69,0.00,,,0.07,meteohub,2013-06-09 16:33:00,
2013-06-09 17:39:00,58.3,48.2,30.01,ESE,112,11.0,14.0,69,0.00,,,0.07,meteohub,2013-06-09 16:39:00,
2013-06-09 17:44:00,58.3,48.2,30.01,East,90,10.0,14.0,69,0.00,,,0.07,meteohub,2013-06-09 16:44:00,
2013-06-09 17:49:00,57.9,47.5,30.01,East,90,8.0,14.0,68,0.00,,,0.07,meteohub,2013-06-09 16:49:00,
2013-06-09 17:54:00,57.7,47.3,30.01,East,90,6.0,14.0,68,0.00,,,0.07,meteohub,2013-06-09 16:54:00,
2013-06-09 17:59:00,57.6,47.5,30.01,ESE,112,10.0,13.0,69,0.00,,,0.07,meteohub,2013-06-09 16:59:00,
2013-06-09 18:05:00,57.4,47.3,30.01,ENE,67,10.0,13.0,69,0.00,,,0.07,meteohub,2013-06-09 17:05:00,
2013-06-09 18:10:00,57.2,47.1,30.01,ENE,67,10.0,13.0,69,0.00,,,0.07,meteohub,2013-06-09 17:10:00,
2013-06-09 18:15:00,57.2,47.5,30.01,ENE,67,6.0,14.0,70,0.00,,,0.07,meteohub,2013-06-09 17:15:00,
2013-06-09 18:20:00,57.2,47.8,30.01,ESE,112,8.0,14.0,71,0.00,,,0.07,meteohub,2013-06-09 17:20:00,
2013-06-09 18:25:00,57.2,47.8,30.01,ENE,67,11.0,14.0,71,0.00,,,0.07,meteohub,2013-06-09 17:25:00,
2013-06-09 18:31:00,56.8,47.5,30.01,East,90,6.0,14.0,71,0.00,,,0.07,meteohub,2013-06-09 17:31:00,
2013-06-09 18:36:00,56.8,47.5,30.01,East,90,6.0,14.0,71,0.00,,,0.07,meteohub,2013-06-09 17:36:00,
2013-06-09 18:41:00,56.7,47.7,30.01,ESE,112,8.0,13.0,72,0.00,,,0.07,meteohub,2013-06-09 17:41:00,
2013-06-09 18:46:00,56.7,47.7,30.01,ENE,67,13.0,13.0,72,0.00,,,0.07,meteohub,2013-06-09 17:46:00,
2013-06-09 18:51:00,56.5,47.7,30.01,East,90,12.0,13.0,72,0.00,,,0.07,meteohub,2013-06-09 17:51:00,
2013-06-09 18:57:00,56.3,47.5,30.01,East,90,9.0,13.0,72,0.00,,,0.07,meteohub,2013-06-09 17:57:00,
2013-06-09 19:02:00,56.3,47.8,30.01,East,90,6.0,14.0,73,0.00,,,0.07,meteohub,2013-06-09 18:02:00,
2013-06-09 19:07:00,56.1,47.3,30.01,East,90,10.0,14.0,72,0.00,,,0.07,meteohub,2013-06-09 18:07:00,
2013-06-09 19:12:00,56.1,47.3,30.01,East,90,12.0,14.0,72,0.00,,,0.07,meteohub,2013-06-09 18:12:00,
2013-06-09 19:17:00,55.8,46.9,30.01,East,90,9.0,15.0,72,0.00,,,0.07,meteohub,2013-06-09 18:17:00,
2013-06-09 19:22:00,55.9,47.1,30.01,ESE,112,10.0,15.0,72,0.00,,,0.07,meteohub,2013-06-09 18:22:00,
2013-06-09 19:27:00,55.9,47.1,30.01,ESE,112,4.0,15.0,72,0.00,,,0.07,meteohub,2013-06-09 18:27:00,
2013-06-09 19:32:00,55.9,47.1,30.01,East,90,10.0,15.0,72,0.00,,,0.07,meteohub,2013-06-09 18:32:00,
2013-06-09 19:37:00,55.6,46.8,30.01,ESE,112,13.0,15.0,72,0.00,,,0.07,meteohub,2013-06-09 18:37:00,
2013-06-09 19:42:00,55.6,46.8,30.01,East,90,11.0,15.0,72,0.00,,,0.07,meteohub,2013-06-09 18:42:00,
2013-06-09 19:47:00,55.4,46.6,30.01,East,90,8.0,15.0,72,0.00,,,0.07,meteohub,2013-06-09 18:47:00,
2013-06-09 19:52:00,55.2,46.8,30.01,East,90,10.0,15.0,73,0.00,,,0.07,meteohub,2013-06-09 18:52:00,
2013-06-09 19:57:00,55.0,46.2,30.01,East,90,11.0,14.0,72,0.00,,,0.07,meteohub,2013-06-09 18:57:00,
2013-06-09 20:02:00,55.0,46.6,30.01,East,90,11.0,14.0,73,0.00,,,0.07,meteohub,2013-06-09 19:02:00,
2013-06-09 20:07:00,55.0,46.6,30.01,East,90,10.0,14.0,73,0.00,,,0.07,meteohub,2013-06-09 19:07:00,
2013-06-09 20:13:00,54.5,46.0,30.01,East,90,10.0,11.0,73,0.00,,,0.07,meteohub,2013-06-09 19:13:00,
2013-06-09 20:18:00,54.5,46.0,30.01,East,90,7.0,14.0,73,0.00,,,0.07,meteohub,2013-06-09 19:18:00,
2013-06-09 20:23:00,54.3,45.9,30.01,East,90,13.0,14.0,73,0.00,,,0.07,meteohub,2013-06-09 19:23:00,
2013-06-09 20:28:00,54.1,45.7,30.01,ENE,67,10.0,16.0,73,0.00,,,0.07,meteohub,2013-06-09 19:28:00,
2013-06-09 20:33:00,53.8,45.7,30.01,East,90,11.0,16.0,74,0.00,,,0.07,meteohub,2013-06-09 19:33:00,
2013-06-09 20:38:00,53.4,45.7,30.01,ENE,67,8.0,16.0,75,0.00,,,0.07,meteohub,2013-06-09 19:38:00,
2013-06-09 20:44:00,53.2,45.9,30.01,East,90,9.0,15.0,76,0.00,,,0.07,meteohub,2013-06-09 19:44:00,
2013-06-09 20:49:00,53.1,46.0,30.01,East,90,6.0,15.0,77,0.00,,,0.07,meteohub,2013-06-09 19:49:00,
2013-06-09 20:54:00,53.1,46.4,30.01,East,90,6.0,13.0,78,0.00,,,0.07,meteohub,2013-06-09 19:54:00,
2013-06-09 20:59:00,52.9,46.6,30.01,East,90,8.0,13.0,79,0.00,,,0.07,meteohub,2013-06-09 19:59:00,
2013-06-09 21:04:00,52.5,46.6,30.01,East,90,8.0,13.0,80,0.00,,,0.07,meteohub,2013-06-09 20:04:00,
2013-06-09 21:10:00,52.3,46.8,30.01,ENE,67,9.0,13.0,81,0.00,,,0.07,meteohub,2013-06-09 20:10:00,
2013-06-09 21:15:00,52.2,46.6,30.01,East,90,8.0,13.0,81,0.00,,,0.07,meteohub,2013-06-09 20:15:00,
2013-06-09 21:20:00,52.0,46.6,30.01,East,90,8.0,13.0,82,0.00,,,0.07,meteohub,2013-06-09 20:20:00,
2013-06-09 21:25:00,51.8,46.8,30.01,East,90,5.0,13.0,83,0.00,,,0.07,meteohub,2013-06-09 20:25:00,
2013-06-09 21:30:00,51.6,46.6,30.01,East,90,4.0,12.0,83,0.00,,,0.07,meteohub,2013-06-09 20:30:00,
2013-06-09 21:35:00,56.1,47.3,30.01,East,90,6.0,12.0,72,0.00,,,0.07,meteohub,2013-06-09 20:35:00,
2013-06-09 21:40:00,56.1,47.3,30.01,East,90,5.0,10.0,72,0.00,,,0.07,meteohub,2013-06-09 20:40:00,
2013-06-09 21:46:00,51.6,46.9,30.01,East,90,8.0,10.0,84,0.00,,,0.07,meteohub,2013-06-09 20:46:00,
2013-06-09 21:51:00,51.6,46.9,30.01,East,90,10.0,10.0,84,0.00,,,0.07,meteohub,2013-06-09 20:51:00,
2013-06-09 21:56:00,51.4,47.1,30.01,East,90,6.0,10.0,85,0.00,,,0.07,meteohub,2013-06-09 20:56:00,
2013-06-09 22:01:00,51.4,47.1,30.01,ESE,112,11.0,11.0,85,0.00,,,0.07,meteohub,2013-06-09 21:01:00,
2013-06-09 22:06:00,51.4,47.1,30.04,ESE,112,8.0,11.0,85,0.00,,,0.07,meteohub,2013-06-09 21:06:00,
2013-06-09 22:11:00,51.4,46.8,30.04,East,90,7.0,11.0,84,0.00,,,0.07,meteohub,2013-06-09 21:11:00,
2013-06-09 22:17:00,51.4,46.8,30.04,East,90,8.0,11.0,84,0.00,,,0.07,meteohub,2013-06-09 21:17:00,
2013-06-09 22:22:00,51.3,46.6,30.04,East,90,8.0,13.0,84,0.00,,,0.07,meteohub,2013-06-09 21:22:00,
2013-06-09 22:27:00,51.3,46.9,30.04,East,90,4.0,13.0,85,0.00,,,0.07,meteohub,2013-06-09 21:27:00,
2013-06-09 22:32:00,51.3,46.6,30.04,East,90,6.0,13.0,84,0.00,,,0.07,meteohub,2013-06-09 21:32:00,
2013-06-09 22:37:00,51.3,46.9,30.04,East,90,11.0,11.0,85,0.00,,,0.07,meteohub,2013-06-09 21:37:00,
2013-06-09 22:42:00,51.1,46.4,30.04,ENE,67,8.0,11.0,84,0.00,,,0.07,meteohub,2013-06-09 21:42:00,
2013-06-09 22:47:00,51.1,46.8,30.04,ESE,112,9.0,11.0,85,0.00,,,0.07,meteohub,2013-06-09 21:47:00,
2013-06-09 22:52:00,51.1,46.8,30.01,East,90,11.0,11.0,85,0.00,,,0.07,meteohub,2013-06-09 21:52:00,
2013-06-09 22:58:00,51.1,46.8,30.01,ENE,67,4.0,11.0,85,0.00,,,0.07,meteohub,2013-06-09 21:58:00,
2013-06-09 23:03:00,51.1,46.8,30.01,ENE,67,6.0,11.0,85,0.00,,,0.07,meteohub,2013-06-09 22:03:00,
2013-06-09 23:08:00,51.1,46.8,30.01,ENE,67,8.0,11.0,85,0.00,,,0.07,meteohub,2013-06-09 22:08:00,
2013-06-09 23:14:00,51.1,46.8,30.01,East,90,5.0,13.0,85,0.00,,,0.07,meteohub,2013-06-09 22:14:00,
2013-06-09 23:19:00,51.1,46.8,30.01,East,90,5.0,13.0,85,0.00,,,0.07,meteohub,2013-06-09 22:19:00,
2013-06-09 23:25:00,51.1,46.8,30.01,East,90,4.0,11.0,85,0.00,,,0.07,meteohub,2013-06-09 22:25:00,
2013-06-09 23:30:00,51.3,46.9,30.01,East,90,6.0,10.0,85,0.00,,,0.07,meteohub,2013-06-09 22:30:00,
2013-06-09 23:35:00,51.3,46.9,30.01,East,90,4.0,10.0,85,0.00,,,0.07,meteohub,2013-06-09 22:35:00,
2013-06-09 23:40:00,51.3,46.9,30.01,East,90,6.0,10.0,85,0.00,,,0.07,meteohub,2013-06-09 22:40:00,
2013-06-09 23:46:00,51.3,46.9,30.01,ESE,112,6.0,10.0,85,0.00,,,0.07,meteohub,2013-06-09 22:46:00,
2013-06-09 23:51:00,51.3,46.9,30.01,East,90,5.0,9.0,85,0.00,,,0.07,meteohub,2013-06-09 22:51:00,
2013-06-09 23:57:00,51.3,46.9,30.01,East,90,7.0,9.0,85,0.00,,,0.07,meteohub,2013-06-09 22:57:00,